Time;durP1;ratioP1;P1;durP2;ratioP2;P2;SDS_P1;SDS_P2;PMS_P1;PMS_P2;Temp;Humidity;BMP_temperature;BMP_pressure;BME280_temperature;BME280_humidity;BME280_pressure;Samples;Min_cycle;Max_cycle;Signal;HPM_P1;HPM_P2
2023/06/25 00:01:19;;;;;;;;;;;17.20;75.70;;;;;;6187096;23;19920;-94
2023/06/25 00:03:44;;;;;;;;;;;17.20;75.50;;;;;;6148526;23;20047;-93
2023/06/25 00:06:13;;;;;;;;;;;17.10;75.10;;;;;;6161385;23;19951;-93
2023/06/25 00:08:42;;;;;;;;;;;17.00;75.00;;;;;;6121481;23;19927;-93
2023/06/25 00:11:07;;;;;;;;;;;17.00;75.90;;;;;;6157772;23;19919;-93
2023/06/25 00:13:36;;;;;;;;;;;17.00;76.40;;;;;;6185639;23;19924;-93
2023/06/25 00:16:01;;;;;;;;;;;17.00;76.50;;;;;;6161920;23;19970;-92
2023/06/25 00:18:27;;;;;;;;;;;17.00;76.90;;;;;;6152911;23;19923;-94
2023/06/25 00:20:55;;;;;;;;;;;17.00;76.80;;;;;;6187084;23;19920;-94
2023/06/25 00:23:24;;;;;;;;;;;17.00;76.10;;;;;;6146451;23;19927;-93
2023/06/25 00:25:50;;;;;;;;;;;17.00;76.80;;;;;;6162689;23;20250;-94
2023/06/25 00:28:16;;;;;;;;;;;17.00;76.50;;;;;;6177707;23;19951;-93
2023/06/25 00:30:47;;;;;;;;;;;17.00;75.80;;;;;;6187451;23;19920;-94
2023/06/25 00:33:12;;;;;;;;;;;17.00;75.90;;;;;;6185027;23;19926;-93
2023/06/25 00:35:47;;;;;;;;;;;16.90;75.20;;;;;;6137512;23;19959;-94
2023/06/25 00:38:16;;;;;;;;;;;16.90;75.00;;;;;;6155678;23;19924;-94
2023/06/25 00:40:45;;;;;;;;;;;16.90;75.50;;;;;;6162170;23;19924;-95
2023/06/25 00:43:20;;;;;;;;;;;16.90;75.30;;;;;;6184786;23;19979;-94
2023/06/25 00:45:49;;;;;;;;;;;16.80;75.10;;;;;;6162328;23;19920;-94
2023/06/25 00:48:22;;;;;;;;;;;16.80;75.20;;;;;;6128164;23;20250;-94
2023/06/25 00:50:48;;;;;;;;;;;16.80;75.00;;;;;;6156999;23;19921;-93
2023/06/25 00:53:17;;;;;;;;;;;16.80;74.90;;;;;;6154848;23;19920;-94
2023/06/25 00:55:50;;;;;;;;;;;16.80;75.50;;;;;;6157077;23;19931;-93
2023/06/25 00:58:20;;;;;;;;;;;16.80;75.50;;;;;;6147595;23;19920;-93
2023/06/25 01:00:46;;;;;;;;;;;16.70;75.40;;;;;;6157098;23;20390;-93
2023/06/25 01:03:16;;;;;;;;;;;16.70;75.80;;;;;;6141808;23;19991;-94
2023/06/25 01:05:43;;;;;;;;;;;16.70;76.10;;;;;;6157435;23;19921;-93
2023/06/25 01:08:15;;;;;;;;;;;16.70;75.70;;;;;;6147131;23;19998;-94
2023/06/25 01:10:46;;;;;;;;;;;16.60;75.40;;;;;;6156921;23;19928;-94
2023/06/25 01:13:23;;;;;;;;;;;16.60;75.80;;;;;;6157206;23;19928;-94
2023/06/25 01:15:49;;;;;;;;;;;16.60;75.50;;;;;;6159807;23;19999;-95
2023/06/25 01:18:14;;;;;;;;;;;16.60;75.70;;;;;;6148594;23;20112;-94
2023/06/25 01:20:43;;;;;;;;;;;16.60;75.90;;;;;;6159499;23;19920;-93
2023/06/25 01:23:12;;;;;;;;;;;16.60;75.90;;;;;;6155831;23;19921;-94
2023/06/25 01:25:40;;;;;;;;;;;16.60;76.10;;;;;;6159516;23;20439;-93
2023/06/25 01:28:11;;;;;;;;;;;16.60;76.40;;;;;;6124833;23;19921;-93
2023/06/25 01:30:37;;;;;;;;;;;16.60;77.00;;;;;;6159357;23;19952;-92
2023/06/25 01:33:15;;;;;;;;;;;16.60;77.50;;;;;;6144904;23;19920;-93
2023/06/25 01:35:43;;;;;;;;;;;16.60;77.20;;;;;;6158942;23;19928;-93
2023/06/25 01:38:20;;;;;;;;;;;16.60;77.00;;;;;;6127050;23;19927;-93
2023/06/25 01:40:46;;;;;;;;;;;16.60;76.90;;;;;;6159145;23;19920;-94
2023/06/25 01:43:12;;;;;;;;;;;16.60;77.20;;;;;;6144925;23;19928;-94
2023/06/25 01:45:38;;;;;;;;;;;16.60;77.40;;;;;;6134151;23;19927;-93
2023/06/25 01:48:11;;;;;;;;;;;16.50;77.50;;;;;;6110610;23;19947;-91
2023/06/25 01:50:37;;;;;;;;;;;16.50;77.90;;;;;;6145112;23;20216;-93
2023/06/25 01:53:02;;;;;;;;;;;16.40;77.70;;;;;;6149215;23;19999;-93
2023/06/25 01:55:28;;;;;;;;;;;16.40;77.90;;;;;;6188630;23;19960;-94
2023/06/25 01:57:54;;;;;;;;;;;16.40;77.80;;;;;;6178634;23;19924;-93
2023/06/25 02:00:24;;;;;;;;;;;16.40;77.70;;;;;;6164285;23;19931;-92
2023/06/25 02:02:52;;;;;;;;;;;16.40;77.70;;;;;;6186333;23;20238;-94
2023/06/25 02:05:21;;;;;;;;;;;16.40;77.60;;;;;;6188886;23;19943;-94
2023/06/25 02:07:47;;;;;;;;;;;16.40;77.70;;;;;;6151423;23;19927;-92
2023/06/25 02:10:15;;;;;;;;;;;16.40;77.70;;;;;;6187334;23;19920;-92
2023/06/25 02:12:46;;;;;;;;;;;16.40;77.70;;;;;;6186510;23;19927;-94
2023/06/25 02:15:11;;;;;;;;;;;16.40;77.60;;;;;;6188339;23;19974;-94
2023/06/25 02:17:37;;;;;;;;;;;16.40;77.90;;;;;;6164383;23;19924;-93
2023/06/25 02:20:03;;;;;;;;;;;16.40;77.30;;;;;;6163429;23;19920;-94
2023/06/25 02:22:29;;;;;;;;;;;16.40;77.10;;;;;;6161560;23;19920;-94
2023/06/25 02:25:00;;;;;;;;;;;16.40;77.80;;;;;;6188895;23;19924;-92
2023/06/25 02:27:26;;;;;;;;;;;16.40;77.50;;;;;;6117438;23;19920;-94
2023/06/25 02:29:51;;;;;;;;;;;16.40;77.40;;;;;;6188627;23;19920;-94
2023/06/25 02:32:22;;;;;;;;;;;16.30;77.10;;;;;;6186324;23;19991;-93
2023/06/25 02:34:53;;;;;;;;;;;16.30;77.50;;;;;;6163510;23;19994;-94
2023/06/25 02:37:18;;;;;;;;;;;16.20;77.30;;;;;;6156023;23;19927;-92
2023/06/25 02:39:44;;;;;;;;;;;16.20;77.30;;;;;;6188752;23;19920;-94
2023/06/25 02:42:17;;;;;;;;;;;16.20;77.30;;;;;;6161332;23;19942;-94
2023/06/25 02:44:43;;;;;;;;;;;16.20;77.50;;;;;;6163355;23;19990;-94
2023/06/25 02:47:09;;;;;;;;;;;16.30;77.80;;;;;;6178457;23;20290;-93
2023/06/25 02:49:35;;;;;;;;;;;16.20;77.60;;;;;;6187457;23;19924;-94
2023/06/25 02:52:03;;;;;;;;;;;16.20;77.20;;;;;;6188509;23;20050;-94
2023/06/25 02:54:32;;;;;;;;;;;16.20;77.10;;;;;;6146398;23;19935;-93
2023/06/25 02:57:00;;;;;;;;;;;16.20;77.50;;;;;;6155792;23;19978;-94
2023/06/25 02:59:25;;;;;;;;;;;16.20;77.30;;;;;;6147462;23;19928;-94
2023/06/25 03:01:51;;;;;;;;;;;16.20;77.20;;;;;;6162487;23;19992;-94
2023/06/25 03:04:17;;;;;;;;;;;16.20;77.50;;;;;;6161718;23;19927;-94
2023/06/25 03:06:43;;;;;;;;;;;16.20;77.20;;;;;;6182653;23;19915;-93
2023/06/25 03:09:09;;;;;;;;;;;16.10;77.20;;;;;;6184760;23;20090;-94
2023/06/25 03:11:37;;;;;;;;;;;16.10;77.00;;;;;;6163346;23;20489;-94
2023/06/25 03:14:06;;;;;;;;;;;16.10;77.30;;;;;;6210525;23;19920;-94
2023/06/25 03:16:32;;;;;;;;;;;16.10;77.50;;;;;;6183673;23;20713;-93
2023/06/25 03:18:58;;;;;;;;;;;16.10;77.90;;;;;;6183250;23;19920;-95
2023/06/25 03:21:26;;;;;;;;;;;16.10;77.60;;;;;;6162643;23;19920;-93
2023/06/25 03:23:52;;;;;;;;;;;16.10;77.90;;;;;;6148060;23;19927;-94
2023/06/25 03:26:18;;;;;;;;;;;16.10;77.60;;;;;;6185930;23;19920;-93
2023/06/25 03:28:43;;;;;;;;;;;16.10;77.40;;;;;;6181165;23;19927;-94
2023/06/25 03:31:09;;;;;;;;;;;16.10;77.30;;;;;;6188436;23;19939;-93
2023/06/25 03:33:38;;;;;;;;;;;16.10;77.30;;;;;;6184639;23;19985;-94
2023/06/25 03:36:09;;;;;;;;;;;16.10;78.00;;;;;;6187994;23;19926;-94
2023/06/25 03:38:34;;;;;;;;;;;16.00;77.90;;;;;;6156824;23;19920;-95
2023/06/25 03:41:01;;;;;;;;;;;16.00;77.60;;;;;;6163501;23;19954;-95
2023/06/25 03:43:32;;;;;;;;;;;16.00;77.70;;;;;;6138056;23;20004;-95
2023/06/25 03:45:58;;;;;;;;;;;16.00;77.70;;;;;;6155818;23;19923;-94
2023/06/25 03:48:26;;;;;;;;;;;16.00;78.10;;;;;;6164290;23;19920;-94
2023/06/25 03:50:52;;;;;;;;;;;16.00;78.10;;;;;;6138073;23;20003;-95
2023/06/25 03:53:27;;;;;;;;;;;16.00;77.90;;;;;;6130557;23;19926;-94
2023/06/25 03:55:55;;;;;;;;;;;16.00;78.70;;;;;;6108568;23;19924;-93
2023/06/25 03:58:21;;;;;;;;;;;16.00;77.90;;;;;;6110021;23;20286;-95
2023/06/25 04:00:47;;;;;;;;;;;16.00;78.00;;;;;;6132297;23;19920;-95
2023/06/25 04:03:18;;;;;;;;;;;16.00;78.70;;;;;;6118498;23;19924;-95
2023/06/25 04:05:45;;;;;;;;;;;16.10;79.20;;;;;;6133623;23;19920;-95
2023/06/25 04:08:11;;;;;;;;;;;16.10;78.80;;;;;;6109345;23;19946;-94
2023/06/25 04:10:38;;;;;;;;;;;16.10;78.70;;;;;;6133351;23;20002;-95
2023/06/25 04:13:07;;;;;;;;;;;16.10;78.50;;;;;;6110450;23;19978;-96
2023/06/25 04:15:35;;;;;;;;;;;16.10;78.60;;;;;;6109237;23;19920;-96
2023/06/25 04:18:09;;;;;;;;;;;16.10;79.10;;;;;;6113583;23;19920;-94
2023/06/25 04:20:35;;;;;;;;;;;16.20;79.10;;;;;;6133227;23;19947;-95
2023/06/25 04:23:04;;;;;;;;;;;16.20;78.90;;;;;;6117405;23;19924;-95
2023/06/25 04:25:32;;;;;;;;;;;16.20;78.80;;;;;;6133388;23;19920;-96
2023/06/25 04:27:58;;;;;;;;;;;16.40;78.70;;;;;;6113258;23;19988;-95
2023/06/25 04:30:23;;;;;;;;;;;16.40;78.70;;;;;;6108898;23;19963;-96
2023/06/25 04:32:49;;;;;;;;;;;16.40;78.80;;;;;;6161002;23;19927;-94
2023/06/25 04:35:17;;;;;;;;;;;16.40;78.80;;;;;;6132760;23;19932;-94
2023/06/25 04:37:46;;;;;;;;;;;16.50;78.70;;;;;;6126432;23;19967;-96
2023/06/25 04:40:12;;;;;;;;;;;16.60;78.70;;;;;;6133271;23;20290;-94
2023/06/25 04:42:38;;;;;;;;;;;16.70;79.00;;;;;;6117738;23;19988;-95
2023/06/25 04:45:06;;;;;;;;;;;16.70;79.10;;;;;;6133846;23;19960;-95
2023/06/25 04:47:34;;;;;;;;;;;16.80;79.00;;;;;;6125181;23;20418;-96
2023/06/25 04:50:02;;;;;;;;;;;16.90;79.10;;;;;;6148753;23;19920;-95
2023/06/25 04:52:34;;;;;;;;;;;17.00;79.00;;;;;;6119348;23;19953;-94
2023/06/25 04:55:07;;;;;;;;;;;17.00;78.80;;;;;;6146634;23;19927;-96
2023/06/25 04:57:32;;;;;;;;;;;17.00;78.70;;;;;;6179071;23;19923;-96
2023/06/25 04:59:58;;;;;;;;;;;17.20;78.80;;;;;;6188398;23;19926;-94
2023/06/25 05:02:26;;;;;;;;;;;17.20;79.00;;;;;;6186314;23;19942;-96
2023/06/25 05:04:52;;;;;;;;;;;17.40;79.20;;;;;;6134847;23;19924;-94
2023/06/25 05:07:20;;;;;;;;;;;17.60;78.70;;;;;;6161848;23;19996;-92
2023/06/25 05:09:46;;;;;;;;;;;17.80;78.40;;;;;;6187972;23;19924;-94
2023/06/25 05:12:12;;;;;;;;;;;18.10;78.00;;;;;;6185721;23;20373;-94
2023/06/25 05:14:38;;;;;;;;;;;18.20;77.90;;;;;;6188294;23;19920;-96
2023/06/25 05:17:06;;;;;;;;;;;18.50;77.70;;;;;;6169513;23;19916;-94
2023/06/25 05:19:34;;;;;;;;;;;18.70;77.70;;;;;;6099501;23;19920;-96
2023/06/25 05:22:00;;;;;;;;;;;18.90;76.90;;;;;;6188898;23;19919;-95
2023/06/25 05:24:34;;;;;;;;;;;19.20;76.40;;;;;;6185906;23;19947;-96
2023/06/25 05:27:05;;;;;;;;;;;19.40;76.10;;;;;;6182143;23;19931;-95
2023/06/25 05:29:31;;;;;;;;;;;19.70;75.40;;;;;;6123347;23;19920;-95
2023/06/25 05:32:02;;;;;;;;;;;20.00;75.20;;;;;;6189037;23;19955;-96
2023/06/25 05:34:30;;;;;;;;;;;20.30;74.30;;;;;;6185941;23;19924;-96
2023/06/25 05:36:59;;;;;;;;;;;20.50;74.40;;;;;;6181782;23;19926;-96
2023/06/25 05:39:28;;;;;;;;;;;20.80;72.60;;;;;;6139584;23;20342;-95
2023/06/25 05:41:58;;;;;;;;;;;20.90;72.70;;;;;;6189387;23;19959;-96
2023/06/25 05:44:26;;;;;;;;;;;20.80;72.50;;;;;;6150005;23;19920;-96
2023/06/25 05:46:54;;;;;;;;;;;20.70;73.20;;;;;;6156893;23;20003;-95
2023/06/25 05:49:20;;;;;;;;;;;20.70;73.10;;;;;;6151240;23;19948;-94
2023/06/25 05:55:45;;;;;;;;;;;20.80;73.10;;;;;;6084288;23;19993;-96
2023/06/25 05:58:17;;;;;;;;;;;20.90;73.20;;;;;;6110924;23;19920;-96
2023/06/25 06:00:59;;;;;;;;;;;;;;;;;;;;;
2023/06/25 06:03:27;;;;;;;;;;;21.00;72.10;;;;;;6125097;23;19924;-95
2023/06/25 06:06:42;;;;;;;;;;;;;;;;;;;;;
2023/06/25 06:09:09;;;;;;;;;;;21.10;71.30;;;;;;6132334;23;19924;-94
2023/06/25 06:11:37;;;;;;;;;;;21.10;69.00;;;;;;6130409;23;19935;-96
2023/06/25 06:17:29;;;;;;;;;;;21.30;69.40;;;;;;6022600;23;19929;-95
2023/06/25 06:23:24;;;;;;;;;;;21.50;67.50;;;;;;6133408;23;19924;-95
2023/06/25 06:26:31;;;;;;;;;;;;;;;;;;;;;
2023/06/25 06:29:03;;;;;;;;;;;21.70;66.60;;;;;;6119650;23;19994;-94
2023/06/25 06:31:49;;;;;;;;;;;21.70;67.10;;;;;;6137942;23;19920;-95
2023/06/25 06:38:15;;;;;;;;;;;21.90;66.50;;;;;;6056428;23;19925;-96
2023/06/25 06:43:42;;;;;;;;;;;22.00;66.90;;;;;;6020445;23;19929;-94
2023/06/25 06:46:35;;;;;;;;;;;;;;;;;;;;;
2023/06/25 07:12:50;;;;;;;;;;;22.10;66.90;;;;;;5582920;22;15771110;-95
2023/06/25 07:15:41;;;;;;;;;;;22.30;67.60;;;;;;6166789;23;20002;-94
2023/06/25 07:18:47;;;;;;;;;;;22.30;67.00;;;;;;6075686;23;19997;-94
2023/06/25 07:21:15;;;;;;;;;;;22.20;67.20;;;;;;6126001;23;19920;-96
2023/06/25 07:23:44;;;;;;;;;;;22.20;67.50;;;;;;6165786;23;19921;-91
2023/06/25 07:26:09;;;;;;;;;;;22.20;68.00;;;;;;6165381;23;20141;-93
2023/06/25 07:28:35;;;;;;;;;;;22.30;67.80;;;;;;6133161;23;19920;-93
2023/06/25 07:31:01;;;;;;;;;;;22.50;68.20;;;;;;6142433;23;19970;-91
2023/06/25 07:33:27;;;;;;;;;;;22.50;67.80;;;;;;6163178;23;19924;-92
2023/06/25 07:35:52;;;;;;;;;;;22.50;67.50;;;;;;6165687;23;19970;-92
2023/06/25 07:38:18;;;;;;;;;;;22.50;67.20;;;;;;6159099;23;19927;-92
2023/06/25 07:40:44;;;;;;;;;;;22.50;67.30;;;;;;6165572;23;19920;-92
2023/06/25 07:43:10;;;;;;;;;;;22.50;67.60;;;;;;6152061;23;19998;-93
2023/06/25 07:45:36;;;;;;;;;;;22.60;68.10;;;;;;6165561;23;20246;-92
2023/06/25 07:48:02;;;;;;;;;;;22.70;67.80;;;;;;6145272;23;19920;-92
2023/06/25 07:50:30;;;;;;;;;;;22.70;68.00;;;;;;6165411;23;20305;-92
2023/06/25 07:52:55;;;;;;;;;;;22.80;67.50;;;;;;6164400;23;20250;-92
2023/06/25 07:55:22;;;;;;;;;;;22.80;67.90;;;;;;6140700;23;19920;-93
2023/06/25 07:57:47;;;;;;;;;;;22.90;67.40;;;;;;6156642;23;19924;-92
2023/06/25 08:00:13;;;;;;;;;;;22.90;66.90;;;;;;6165498;23;19920;-92
2023/06/25 08:02:39;;;;;;;;;;;22.90;67.70;;;;;;6164336;23;19920;-91
2023/06/25 08:05:05;;;;;;;;;;;22.90;68.40;;;;;;6164662;23;19947;-92
2023/06/25 08:07:30;;;;;;;;;;;22.90;67.40;;;;;;6141379;23;19921;-93
2023/06/25 08:09:56;;;;;;;;;;;23.00;67.70;;;;;;6138596;23;19956;-92
2023/06/25 08:12:22;;;;;;;;;;;23.00;68.00;;;;;;6156656;23;19960;-91
2023/06/25 08:14:47;;;;;;;;;;;23.10;68.20;;;;;;6177793;23;19982;-93
2023/06/25 08:17:16;;;;;;;;;;;23.20;67.60;;;;;;6124417;23;19993;-92
2023/06/25 08:19:45;;;;;;;;;;;23.20;67.50;;;;;;6145105;23;20482;-92
2023/06/25 08:22:13;;;;;;;;;;;23.30;68.00;;;;;;6143464;23;20321;-91
2023/06/25 08:24:43;;;;;;;;;;;23.30;67.90;;;;;;6158276;23;20301;-91
2023/06/25 08:27:14;;;;;;;;;;;23.40;67.10;;;;;;6126282;23;20367;-92
2023/06/25 08:29:48;;;;;;;;;;;23.40;66.80;;;;;;6158143;23;19935;-91
2023/06/25 08:32:14;;;;;;;;;;;23.50;66.60;;;;;;6115266;23;19928;-92
2023/06/25 08:34:47;;;;;;;;;;;23.50;67.20;;;;;;6136620;23;20052;-92
2023/06/25 08:37:15;;;;;;;;;;;23.60;66.90;;;;;;6152734;23;20250;-92
2023/06/25 08:39:40;;;;;;;;;;;23.60;66.60;;;;;;6157787;23;20394;-91
2023/06/25 08:42:09;;;;;;;;;;;23.70;66.50;;;;;;6174276;23;19967;-92
2023/06/25 08:44:35;;;;;;;;;;;23.80;66.30;;;;;;6158662;23;19920;-91
2023/06/25 08:47:05;;;;;;;;;;;23.80;66.60;;;;;;6176869;23;19921;-91
2023/06/25 08:49:31;;;;;;;;;;;23.90;65.50;;;;;;6156642;23;19931;-91
2023/06/25 08:51:59;;;;;;;;;;;24.00;66.10;;;;;;6158262;23;19920;-92
2023/06/25 08:54:24;;;;;;;;;;;24.00;64.40;;;;;;6144840;23;19978;-93
2023/06/25 08:56:50;;;;;;;;;;;24.10;65.50;;;;;;6153107;23;20517;-94
2023/06/25 08:59:16;;;;;;;;;;;24.20;65.90;;;;;;6156583;23;19920;-94
2023/06/25 09:01:42;;;;;;;;;;;24.20;66.00;;;;;;6135554;23;19920;-93
2023/06/25 09:04:08;;;;;;;;;;;24.40;66.00;;;;;;6108971;23;19998;-94
2023/06/25 09:06:42;;;;;;;;;;;24.40;64.30;;;;;;6157391;23;19924;-93
2023/06/25 09:09:31;;;;;;;;;;;24.50;65.50;;;;;;6122859;23;19986;-95
2023/06/25 09:12:07;;;;;;;;;;;24.60;65.50;;;;;;6137108;23;19920;-95
2023/06/25 09:14:35;;;;;;;;;;;24.70;63.00;;;;;;6055833;23;19979;-95
2023/06/25 09:17:11;;;;;;;;;;;24.70;62.00;;;;;;6157363;23;19978;-95
2023/06/25 09:19:51;;;;;;;;;;;24.80;63.00;;;;;;6076770;23;19920;-94
2023/06/25 09:22:22;;;;;;;;;;;24.80;63.40;;;;;;6141537;23;19920;-96
2023/06/25 09:24:50;;;;;;;;;;;24.90;62.50;;;;;;6138636;23;19928;-95
2023/06/25 09:27:21;;;;;;;;;;;25.00;61.90;;;;;;6113279;23;19991;-96
2023/06/25 09:29:49;;;;;;;;;;;25.00;60.70;;;;;;6138755;23;20247;-94
2023/06/25 09:32:16;;;;;;;;;;;25.00;60.50;;;;;;6142617;23;19921;-94
2023/06/25 09:35:23;;;;;;;;;;;25.10;59.60;;;;;;6138011;23;20250;-95
2023/06/25 09:37:54;;;;;;;;;;;25.20;60.60;;;;;;6177407;23;19920;-92
2023/06/25 09:40:29;;;;;;;;;;;25.20;61.50;;;;;;6160040;23;19920;-94
2023/06/25 09:43:13;;;;;;;;;;;25.30;62.10;;;;;;6133020;23;20354;-95
2023/06/25 09:45:54;;;;;;;;;;;25.40;61.50;;;;;;6128574;23;19920;-96
2023/06/25 09:48:44;;;;;;;;;;;25.40;59.70;;;;;;6093534;23;19943;-96
2023/06/25 09:51:28;;;;;;;;;;;;;;;;;;;;;
2023/06/25 09:57:28;;;;;;;;;;;;;;;;;;;;;
2023/06/25 10:02:44;;;;;;;;;;;25.60;59.00;;;;;;6058197;23;19947;-94
2023/06/25 10:05:46;;;;;;;;;;;25.70;59.00;;;;;;6075366;23;19925;-96
2023/06/25 10:08:41;;;;;;;;;;;;;;;;;;;;;
2023/06/25 10:11:35;;;;;;;;;;;25.80;58.50;;;;;;6130099;23;19925;-96
2023/06/25 10:14:22;;;;;;;;;;;25.80;57.80;;;;;;6090984;23;20360;-94
2023/06/25 10:20:14;;;;;;;;;;;25.90;59.40;;;;;;6128609;23;19982;-96
2023/06/25 10:23:25;;;;;;;;;;;;;;;;;;;;;
2023/06/25 10:26:11;;;;;;;;;;;26.00;59.10;;;;;;6104831;23;19992;-94
2023/06/25 10:28:50;;;;;;;;;;;26.00;59.00;;;;;;6125618;23;19920;-95
2023/06/25 10:31:19;;;;;;;;;;;26.00;59.80;;;;;;6158624;23;19924;-95
2023/06/25 10:34:13;;;;;;;;;;;26.00;57.40;;;;;;6134769;23;19970;-94
2023/06/25 10:36:59;;;;;;;;;;;26.10;59.20;;;;;;6150477;23;19921;-94
2023/06/25 10:39:37;;;;;;;;;;;26.20;59.90;;;;;;6156715;23;19966;-93
2023/06/25 10:42:28;;;;;;;;;;;26.20;58.40;;;;;;6141105;23;19924;-94
2023/06/25 10:44:53;;;;;;;;;;;26.20;58.70;;;;;;6158350;23;19928;-92
2023/06/25 10:47:22;;;;;;;;;;;26.40;58.90;;;;;;6136840;23;20331;-91
2023/06/25 10:49:47;;;;;;;;;;;26.40;57.50;;;;;;6158187;23;19927;-93
2023/06/25 10:52:15;;;;;;;;;;;26.40;58.40;;;;;;6156102;22;19920;-92
2023/06/25 10:54:41;;;;;;;;;;;26.40;58.00;;;;;;6157999;23;19928;-92
2023/06/25 10:57:32;;;;;;;;;;;;;;;;;;;;;
2023/06/25 11:00:01;;;;;;;;;;;26.50;57.30;;;;;;6182668;23;19947;-93
2023/06/25 11:16:16;;;;;;;;;;;26.60;58.40;;;;;;6238769;22;19927;-96
2023/06/25 11:19:17;;;;;;;;;;;;;;;;;;;;;
2023/06/25 11:31:34;;;;;;;;;;;26.90;57.20;;;;;;6208254;23;19920;-96
2023/06/25 11:34:09;;;;;;;;;;;27.00;56.90;;;;;;6188134;23;19946;-93
2023/06/25 11:36:34;;;;;;;;;;;27.00;55.30;;;;;;6184801;23;19931;-94
2023/06/25 11:39:08;;;;;;;;;;;27.10;55.40;;;;;;6162515;23;19920;-94
2023/06/25 11:41:36;;;;;;;;;;;27.10;56.80;;;;;;6165363;23;20277;-94
2023/06/25 11:44:01;;;;;;;;;;;27.20;55.90;;;;;;6187484;23;19923;-91
2023/06/25 11:46:27;;;;;;;;;;;27.20;57.50;;;;;;6189952;23;19941;-94
2023/06/25 11:48:53;;;;;;;;;;;27.20;57.50;;;;;;6190159;23;19946;-92
2023/06/25 11:51:21;;;;;;;;;;;27.20;56.80;;;;;;6195622;23;19958;-92
2023/06/25 11:53:47;;;;;;;;;;;27.20;56.60;;;;;;6193239;23;19920;-92
2023/06/25 11:56:13;;;;;;;;;;;27.20;56.00;;;;;;6192932;23;19926;-93
2023/06/25 11:58:38;;;;;;;;;;;27.20;56.00;;;;;;6181658;23;19935;-91
2023/06/25 12:01:10;;;;;;;;;;;27.30;56.60;;;;;;6190140;23;19967;-91
2023/06/25 12:03:38;;;;;;;;;;;27.30;55.90;;;;;;6188388;23;19939;-92
2023/06/25 12:06:06;;;;;;;;;;;27.20;56.50;;;;;;6214329;23;19955;-93
2023/06/25 12:08:35;;;;;;;;;;;27.20;57.20;;;;;;6170765;23;19919;-92
2023/06/25 12:11:03;;;;;;;;;;;27.20;56.50;;;;;;6189145;23;19927;-94
2023/06/25 12:13:28;;;;;;;;;;;27.30;55.30;;;;;;6187319;23;19999;-93
2023/06/25 12:15:57;;;;;;;;;;;27.30;54.70;;;;;;6190449;23;19946;-92
2023/06/25 12:18:23;;;;;;;;;;;27.40;54.30;;;;;;6181404;23;20029;-93
2023/06/25 12:20:49;;;;;;;;;;;27.50;55.00;;;;;;6189222;23;20002;-90
2023/06/25 12:23:14;;;;;;;;;;;27.50;55.50;;;;;;6203127;23;19920;-93
2023/06/25 12:25:40;;;;;;;;;;;27.40;54.50;;;;;;6165660;23;19926;-92
2023/06/25 12:28:09;;;;;;;;;;;27.50;55.60;;;;;;6161794;23;19920;-93
2023/06/25 12:34:44;;;;;;;;;;;27.50;55.20;;;;;;6235899;22;20010;-93
2023/06/25 12:37:46;;;;;;;;;;;27.70;54.50;;;;;;6221828;23;19918;-94
2023/06/25 12:40:11;;;;;;;;;;;27.90;52.10;;;;;;6170601;23;19942;-92
2023/06/25 12:42:40;;;;;;;;;;;28.00;53.20;;;;;;6158935;23;20284;-92
2023/06/25 12:45:09;;;;;;;;;;;28.00;53.00;;;;;;6169876;23;19947;-94
2023/06/25 12:47:35;;;;;;;;;;;28.00;52.60;;;;;;6188305;23;19919;-93
2023/06/25 12:50:01;;;;;;;;;;;28.10;52.50;;;;;;6219421;23;19920;-93
2023/06/25 12:52:32;;;;;;;;;;;28.10;50.80;;;;;;6191099;23;20319;-92
2023/06/25 12:55:11;;;;;;;;;;;;;;;;;;;;;
2023/06/25 12:57:37;;;;;;;;;;;28.10;50.70;;;;;;6211017;23;19923;-95
2023/06/25 13:00:06;;;;;;;;;;;28.10;50.80;;;;;;6190024;23;19919;-93
2023/06/25 13:02:32;;;;;;;;;;;28.10;50.60;;;;;;6178129;23;20377;-94
2023/06/25 13:04:58;;;;;;;;;;;28.10;50.60;;;;;;6188874;23;19920;-93
2023/06/25 13:07:26;;;;;;;;;;;28.20;50.30;;;;;;6183623;23;19942;-92
2023/06/25 13:09:55;;;;;;;;;;;28.30;50.50;;;;;;6169471;23;19924;-93
2023/06/25 13:12:31;;;;;;;;;;;28.30;51.30;;;;;;6177884;23;19919;-92
2023/06/25 13:14:56;;;;;;;;;;;28.30;51.00;;;;;;6195087;23;19926;-94
2023/06/25 13:17:34;;;;;;;;;;;28.30;49.70;;;;;;6172390;23;19933;-95
2023/06/25 13:20:00;;;;;;;;;;;28.30;51.40;;;;;;6212502;23;19923;-94
2023/06/25 13:22:25;;;;;;;;;;;28.40;50.30;;;;;;6191481;23;19919;-91
2023/06/25 13:24:51;;;;;;;;;;;28.50;50.30;;;;;;6244224;23;19923;-93
2023/06/25 13:27:19;;;;;;;;;;;28.50;50.10;;;;;;6199426;23;19919;-91
2023/06/25 13:29:47;;;;;;;;;;;28.50;50.50;;;;;;6219492;23;19926;-92
2023/06/25 13:32:13;;;;;;;;;;;28.50;50.90;;;;;;6189936;23;19927;-92
2023/06/25 13:34:38;;;;;;;;;;;28.50;50.80;;;;;;6194074;23;19927;-93
2023/06/25 13:37:04;;;;;;;;;;;28.50;51.20;;;;;;6187203;23;19922;-93
2023/06/25 13:39:30;;;;;;;;;;;28.50;49.80;;;;;;6218060;23;20273;-92
2023/06/25 13:42:01;;;;;;;;;;;28.60;50.00;;;;;;6218465;23;19920;-92
2023/06/25 13:44:27;;;;;;;;;;;28.60;50.70;;;;;;6168814;23;19923;-92
2023/06/25 13:47:12;;;;;;;;;;;28.70;51.10;;;;;;6190464;23;19915;-95
2023/06/25 13:53:08;;;;;;;;;;;28.70;49.70;;;;;;6129378;23;19976;-93
2023/06/25 14:16:56;;;;;;;;;;;28.90;49.90;;;;;;5834292;24;19983;-93
2023/06/25 14:19:33;;;;;;;;;;;29.10;49.30;;;;;;5877154;24;19915;-93
2023/06/25 14:22:28;;;;;;;;;;;29.20;48.80;;;;;;5905094;24;19983;-94
2023/06/25 14:28:26;;;;;;;;;;;29.30;49.80;;;;;;5871337;23;19937;-90
2023/06/25 14:30:57;;;;;;;;;;;29.40;50.40;;;;;;5983123;23;20354;-91
2023/06/25 14:33:23;;;;;;;;;;;29.50;50.40;;;;;;6058603;23;20012;-90
2023/06/25 14:35:52;;;;;;;;;;;29.50;50.00;;;;;;6184325;22;19919;-93
2023/06/25 14:38:17;;;;;;;;;;;29.70;49.50;;;;;;6215605;22;20329;-89
2023/06/25 14:40:45;;;;;;;;;;;29.90;50.30;;;;;;6222612;22;19919;-90
2023/06/25 14:43:11;;;;;;;;;;;30.00;49.10;;;;;;6245652;22;20341;-89
2023/06/25 14:45:36;;;;;;;;;;;30.00;50.40;;;;;;6247557;22;19973;-91
2023/06/25 14:48:02;;;;;;;;;;;30.00;49.80;;;;;;6214388;22;19919;-90
2023/06/25 14:50:28;;;;;;;;;;;29.90;50.50;;;;;;6247554;22;19919;-89
2023/06/25 14:52:53;;;;;;;;;;;29.80;48.80;;;;;;6220845;22;19968;-88
2023/06/25 14:55:19;;;;;;;;;;;29.80;49.60;;;;;;6221971;22;19928;-89
2023/06/25 14:57:45;;;;;;;;;;;29.90;49.90;;;;;;6213702;22;19919;-89
2023/06/25 15:00:11;;;;;;;;;;;30.00;50.60;;;;;;6247286;22;20002;-89
2023/06/25 15:02:36;;;;;;;;;;;30.10;51.10;;;;;;6245750;22;19943;-91
2023/06/25 15:05:02;;;;;;;;;;;30.20;50.50;;;;;;6247870;22;20325;-89
2023/06/25 15:07:28;;;;;;;;;;;30.30;50.30;;;;;;6239172;22;19923;-90
2023/06/25 15:09:53;;;;;;;;;;;30.40;49.30;;;;;;6222132;22;19923;-89
2023/06/25 15:12:19;;;;;;;;;;;30.50;49.60;;;;;;6230899;22;20005;-89
2023/06/25 15:14:44;;;;;;;;;;;30.40;49.50;;;;;;6222370;22;19924;-89
2023/06/25 15:17:11;;;;;;;;;;;30.30;49.80;;;;;;6212137;22;20226;-89
2023/06/25 15:19:36;;;;;;;;;;;30.50;50.20;;;;;;6222027;22;20348;-87
2023/06/25 15:22:04;;;;;;;;;;;30.60;50.70;;;;;;6246050;22;20363;-87
2023/06/25 15:24:30;;;;;;;;;;;30.70;48.80;;;;;;6223799;22;19946;-89
2023/06/25 15:26:55;;;;;;;;;;;30.80;50.20;;;;;;6241261;22;19990;-89
2023/06/25 15:29:22;;;;;;;;;;;30.80;50.70;;;;;;6221761;22;19986;-88
2023/06/25 15:31:47;;;;;;;;;;;30.90;50.60;;;;;;6224283;22;19959;-89
2023/06/25 15:34:13;;;;;;;;;;;30.90;49.30;;;;;;6208766;22;19945;-89
2023/06/25 15:36:39;;;;;;;;;;;31.00;49.40;;;;;;6218227;22;19923;-89
2023/06/25 15:39:04;;;;;;;;;;;31.10;49.40;;;;;;6247218;22;19920;-88
2023/06/25 15:41:30;;;;;;;;;;;31.10;49.20;;;;;;6248605;22;19923;-89
2023/06/25 15:43:58;;;;;;;;;;;31.00;49.00;;;;;;6247899;22;19923;-88
2023/06/25 15:46:24;;;;;;;;;;;31.00;48.70;;;;;;6244822;22;19919;-89
2023/06/25 15:48:49;;;;;;;;;;;31.10;49.20;;;;;;6244053;22;19994;-88
2023/06/25 15:51:17;;;;;;;;;;;31.10;48.60;;;;;;6249000;22;19919;-90
2023/06/25 15:53:43;;;;;;;;;;;31.10;49.50;;;;;;6248232;22;20448;-89
2023/06/25 15:56:09;;;;;;;;;;;31.10;50.60;;;;;;6223815;22;19958;-94
2023/06/25 15:58:37;;;;;;;;;;;31.10;50.70;;;;;;6217289;22;19919;-89
2023/06/25 16:01:05;;;;;;;;;;;31.10;49.70;;;;;;6224179;22;19927;-90
2023/06/25 16:03:36;;;;;;;;;;;31.20;49.60;;;;;;6247255;22;19919;-92
2023/06/25 16:06:02;;;;;;;;;;;31.10;48.80;;;;;;6200122;22;19955;-91
2023/06/25 16:08:28;;;;;;;;;;;31.20;49.30;;;;;;6215339;22;19930;-89
2023/06/25 16:10:56;;;;;;;;;;;31.20;48.70;;;;;;6223797;22;20368;-90
2023/06/25 16:13:22;;;;;;;;;;;31.30;49.20;;;;;;6207667;22;20382;-91
2023/06/25 16:15:47;;;;;;;;;;;31.30;49.00;;;;;;6224156;22;19943;-89
2023/06/25 16:18:13;;;;;;;;;;;31.20;47.70;;;;;;6215734;22;20337;-89
2023/06/25 16:20:39;;;;;;;;;;;31.20;47.70;;;;;;6224112;22;19977;-90
2023/06/25 16:23:07;;;;;;;;;;;31.20;48.20;;;;;;6221944;22;19923;-92
2023/06/25 16:25:33;;;;;;;;;;;31.20;48.60;;;;;;6224563;22;19919;-91
2023/06/25 16:28:01;;;;;;;;;;;31.30;47.70;;;;;;6215497;22;19923;-90
2023/06/25 16:30:26;;;;;;;;;;;31.30;48.00;;;;;;6223594;22;19942;-90